sensor_id;sensor_type;location;lat;lon;timestamp;P1;durP1;ratioP1;P2;durP2;ratioP2
62790;SDS011;48830;53.426;10.300;2023-03-23T00:01:05;10.43;;;4.23;;
62790;SDS011;48830;53.426;10.300;2023-03-23T00:03:35;6.78;;;4.03;;
62790;SDS011;48830;53.426;10.300;2023-03-23T00:06:00;11.87;;;4.83;;
62790;SDS011;48830;53.426;10.300;2023-03-23T00:08:31;7.65;;;5.00;;
62790;SDS011;48830;53.426;10.300;2023-03-23T00:10:58;10.93;;;5.93;;
62790;SDS011;48830;53.426;10.300;2023-03-23T00:13:26;10.02;;;5.78;;
62790;SDS011;48830;53.426;10.300;2023-03-23T00:15:53;8.85;;;5.78;;
62790;SDS011;48830;53.426;10.300;2023-03-23T00:18:19;10.88;;;6.20;;
62790;SDS011;48830;53.426;10.300;2023-03-23T00:20:49;9.50;;;5.77;;
62790;SDS011;48830;53.426;10.300;2023-03-23T00:23:19;11.33;;;6.03;;
62790;SDS011;48830;53.426;10.300;2023-03-23T00:25:46;11.13;;;6.23;;
62790;SDS011;48830;53.426;10.300;2023-03-23T00:28:13;11.03;;;6.53;;
62790;SDS011;48830;53.426;10.300;2023-03-23T00:30:40;11.30;;;7.10;;
62790;SDS011;48830;53.426;10.300;2023-03-23T00:33:08;10.90;;;6.67;;
62790;SDS011;48830;53.426;10.300;2023-03-23T00:35:39;12.77;;;7.50;;
62790;SDS011;48830;53.426;10.300;2023-03-23T00:38:05;12.83;;;6.97;;
62790;SDS011;48830;53.426;10.300;2023-03-23T00:40:31;13.52;;;7.45;;
62790;SDS011;48830;53.426;10.300;2023-03-23T00:43:00;10.83;;;7.10;;
62790;SDS011;48830;53.426;10.300;2023-03-23T00:45:28;12.23;;;7.57;;
62790;SDS011;48830;53.426;10.300;2023-03-23T00:47:54;14.10;;;8.17;;
62790;SDS011;48830;53.426;10.300;2023-03-23T00:50:19;14.27;;;7.63;;
62790;SDS011;48830;53.426;10.300;2023-03-23T00:52:45;14.23;;;8.00;;
62790;SDS011;48830;53.426;10.300;2023-03-23T00:55:10;12.80;;;7.72;;
62790;SDS011;48830;53.426;10.300;2023-03-23T00:57:35;14.30;;;8.30;;
62790;SDS011;48830;53.426;10.300;2023-03-23T01:00:01;14.33;;;7.90;;
62790;SDS011;48830;53.426;10.300;2023-03-23T01:02:29;14.23;;;8.07;;
62790;SDS011;48830;53.426;10.300;2023-03-23T01:04:54;11.47;;;8.00;;
62790;SDS011;48830;53.426;10.300;2023-03-23T01:07:20;12.57;;;7.93;;
62790;SDS011;48830;53.426;10.300;2023-03-23T01:09:48;13.57;;;8.27;;
62790;SDS011;48830;53.426;10.300;2023-03-23T01:12:13;14.18;;;8.32;;
62790;SDS011;48830;53.426;10.300;2023-03-23T01:14:40;13.97;;;8.10;;
62790;SDS011;48830;53.426;10.300;2023-03-23T01:17:06;14.47;;;8.33;;
62790;SDS011;48830;53.426;10.300;2023-03-23T01:19:33;12.67;;;8.07;;
62790;SDS011;48830;53.426;10.300;2023-03-23T01:21:59;11.27;;;8.03;;
62790;SDS011;48830;53.426;10.300;2023-03-23T01:24:24;12.20;;;7.80;;
62790;SDS011;48830;53.426;10.300;2023-03-23T01:26:50;14.63;;;8.63;;
62790;SDS011;48830;53.426;10.300;2023-03-23T01:29:15;14.97;;;8.57;;
62790;SDS011;48830;53.426;10.300;2023-03-23T01:31:41;12.38;;;8.23;;
62790;SDS011;48830;53.426;10.300;2023-03-23T01:34:08;11.75;;;7.60;;
62790;SDS011;48830;53.426;10.300;2023-03-23T01:36:35;12.87;;;7.97;;
62790;SDS011;48830;53.426;10.300;2023-03-23T01:39:02;12.48;;;7.55;;
62790;SDS011;48830;53.426;10.300;2023-03-23T01:41:31;15.20;;;7.97;;
62790;SDS011;48830;53.426;10.300;2023-03-23T01:44:05;12.97;;;8.40;;
62790;SDS011;48830;53.426;10.300;2023-03-23T01:46:52;10.93;;;7.43;;
62790;SDS011;48830;53.426;10.300;2023-03-23T01:49:24;12.77;;;7.95;;
62790;SDS011;48830;53.426;10.300;2023-03-23T01:51:54;17.10;;;8.47;;
62790;SDS011;48830;53.426;10.300;2023-03-23T01:54:24;11.53;;;7.97;;
62790;SDS011;48830;53.426;10.300;2023-03-23T01:56:56;13.67;;;8.17;;
62790;SDS011;48830;53.426;10.300;2023-03-23T01:59:26;12.50;;;7.90;;
62790;SDS011;48830;53.426;10.300;2023-03-23T02:02:12;14.23;;;8.03;;
62790;SDS011;48830;53.426;10.300;2023-03-23T02:04:38;12.63;;;7.70;;
62790;SDS011;48830;53.426;10.300;2023-03-23T02:07:06;15.10;;;8.35;;
62790;SDS011;48830;53.426;10.300;2023-03-23T02:09:33;11.52;;;7.72;;
62790;SDS011;48830;53.426;10.300;2023-03-23T02:11:58;15.40;;;8.33;;
62790;SDS011;48830;53.426;10.300;2023-03-23T02:14:24;14.23;;;8.35;;
62790;SDS011;48830;53.426;10.300;2023-03-23T02:16:54;14.43;;;8.30;;
62790;SDS011;48830;53.426;10.300;2023-03-23T02:22:25;11.18;;;8.00;;
62790;SDS011;48830;53.426;10.300;2023-03-23T02:27:56;13.13;;;8.00;;
62790;SDS011;48830;53.426;10.300;2023-03-23T02:36:13;14.68;;;8.88;;
62790;SDS011;48830;53.426;10.300;2023-03-23T02:41:48;12.68;;;9.20;;
62790;SDS011;48830;53.426;10.300;2023-03-23T02:44:18;13.88;;;8.57;;
62790;SDS011;48830;53.426;10.300;2023-03-23T02:46:44;11.32;;;8.68;;
62790;SDS011;48830;53.426;10.300;2023-03-23T02:49:11;12.90;;;8.50;;
62790;SDS011;48830;53.426;10.300;2023-03-23T02:51:40;13.60;;;9.43;;
62790;SDS011;48830;53.426;10.300;2023-03-23T02:54:09;17.43;;;9.60;;
62790;SDS011;48830;53.426;10.300;2023-03-23T02:56:36;14.45;;;9.20;;
62790;SDS011;48830;53.426;10.300;2023-03-23T02:59:09;15.67;;;9.23;;
62790;SDS011;48830;53.426;10.300;2023-03-23T03:04:12;13.73;;;8.37;;
62790;SDS011;48830;53.426;10.300;2023-03-23T03:11:59;14.80;;;9.48;;
62790;SDS011;48830;53.426;10.300;2023-03-23T03:14:51;13.80;;;8.00;;
62790;SDS011;48830;53.426;10.300;2023-03-23T03:17:26;16.47;;;8.43;;
62790;SDS011;48830;53.426;10.300;2023-03-23T03:20:00;11.87;;;8.77;;
62790;SDS011;48830;53.426;10.300;2023-03-23T03:22:33;11.53;;;8.83;;
62790;SDS011;48830;53.426;10.300;2023-03-23T03:25:03;12.93;;;8.67;;
62790;SDS011;48830;53.426;10.300;2023-03-23T03:27:30;12.35;;;8.23;;
62790;SDS011;48830;53.426;10.300;2023-03-23T03:30:06;12.13;;;8.23;;
62790;SDS011;48830;53.426;10.300;2023-03-23T03:32:44;12.07;;;8.53;;
62790;SDS011;48830;53.426;10.300;2023-03-23T03:35:14;12.95;;;8.75;;
62790;SDS011;48830;53.426;10.300;2023-03-23T03:37:41;16.53;;;9.60;;
62790;SDS011;48830;53.426;10.300;2023-03-23T03:40:08;14.33;;;9.27;;
62790;SDS011;48830;53.426;10.300;2023-03-23T03:42:40;14.77;;;8.63;;
62790;SDS011;48830;53.426;10.300;2023-03-23T03:45:08;14.52;;;9.35;;
62790;SDS011;48830;53.426;10.300;2023-03-23T03:47:35;13.80;;;9.73;;
62790;SDS011;48830;53.426;10.300;2023-03-23T03:50:01;14.57;;;9.60;;
62790;SDS011;48830;53.426;10.300;2023-03-23T03:52:27;12.60;;;9.27;;
62790;SDS011;48830;53.426;10.300;2023-03-23T03:54:54;13.10;;;10.02;;
62790;SDS011;48830;53.426;10.300;2023-03-23T03:57:20;12.90;;;8.80;;
62790;SDS011;48830;53.426;10.300;2023-03-23T04:00:07;13.48;;;8.85;;
62790;SDS011;48830;53.426;10.300;2023-03-23T04:02:40;13.27;;;8.77;;
62790;SDS011;48830;53.426;10.300;2023-03-23T04:05:06;13.20;;;9.30;;
62790;SDS011;48830;53.426;10.300;2023-03-23T04:07:34;15.70;;;11.00;;
62790;SDS011;48830;53.426;10.300;2023-03-23T04:10:03;13.30;;;9.27;;
62790;SDS011;48830;53.426;10.300;2023-03-23T04:12:31;13.57;;;9.60;;
62790;SDS011;48830;53.426;10.300;2023-03-23T04:14:57;12.57;;;9.60;;
62790;SDS011;48830;53.426;10.300;2023-03-23T04:17:30;16.67;;;10.00;;
62790;SDS011;48830;53.426;10.300;2023-03-23T04:19:56;14.63;;;10.27;;
62790;SDS011;48830;53.426;10.300;2023-03-23T04:22:23;12.27;;;9.70;;
62790;SDS011;48830;53.426;10.300;2023-03-23T04:24:56;13.60;;;10.00;;
62790;SDS011;48830;53.426;10.300;2023-03-23T04:27:24;14.03;;;9.77;;
62790;SDS011;48830;53.426;10.300;2023-03-23T04:29:53;15.10;;;10.17;;
62790;SDS011;48830;53.426;10.300;2023-03-23T04:32:38;13.75;;;9.88;;
62790;SDS011;48830;53.426;10.300;2023-03-23T04:35:12;13.33;;;10.17;;
62790;SDS011;48830;53.426;10.300;2023-03-23T04:37:46;13.43;;;10.60;;
62790;SDS011;48830;53.426;10.300;2023-03-23T04:40:16;14.87;;;10.80;;
62790;SDS011;48830;53.426;10.300;2023-03-23T04:42:49;16.25;;;10.93;;
62790;SDS011;48830;53.426;10.300;2023-03-23T04:45:45;15.07;;;10.07;;
62790;SDS011;48830;53.426;10.300;2023-03-23T04:48:12;13.43;;;9.70;;
62790;SDS011;48830;53.426;10.300;2023-03-23T04:50:47;15.13;;;9.93;;
62790;SDS011;48830;53.426;10.300;2023-03-23T04:53:20;14.20;;;10.00;;
62790;SDS011;48830;53.426;10.300;2023-03-23T04:55:47;14.63;;;9.70;;
62790;SDS011;48830;53.426;10.300;2023-03-23T04:58:14;13.18;;;9.40;;
62790;SDS011;48830;53.426;10.300;2023-03-23T05:00:55;10.43;;;8.85;;
62790;SDS011;48830;53.426;10.300;2023-03-23T05:03:22;11.95;;;9.13;;
62790;SDS011;48830;53.426;10.300;2023-03-23T05:05:51;14.83;;;9.07;;
62790;SDS011;48830;53.426;10.300;2023-03-23T05:08:22;12.18;;;8.25;;
62790;SDS011;48830;53.426;10.300;2023-03-23T05:10:52;14.65;;;8.00;;
62790;SDS011;48830;53.426;10.300;2023-03-23T05:13:22;12.82;;;7.80;;
62790;SDS011;48830;53.426;10.300;2023-03-23T05:15:51;10.37;;;7.00;;
62790;SDS011;48830;53.426;10.300;2023-03-23T05:18:16;10.60;;;7.00;;
62790;SDS011;48830;53.426;10.300;2023-03-23T05:20:42;10.82;;;6.28;;
62790;SDS011;48830;53.426;10.300;2023-03-23T05:23:14;9.63;;;5.83;;
62790;SDS011;48830;53.426;10.300;2023-03-23T05:25:40;10.13;;;6.80;;
62790;SDS011;48830;53.426;10.300;2023-03-23T05:28:12;9.97;;;6.83;;
62790;SDS011;48830;53.426;10.300;2023-03-23T05:30:57;9.93;;;6.57;;
62790;SDS011;48830;53.426;10.300;2023-03-23T05:33:27;9.77;;;6.13;;
62790;SDS011;48830;53.426;10.300;2023-03-23T05:36:02;9.30;;;5.78;;
62790;SDS011;48830;53.426;10.300;2023-03-23T05:38:35;9.55;;;6.22;;
62790;SDS011;48830;53.426;10.300;2023-03-23T05:41:01;8.50;;;6.20;;
62790;SDS011;48830;53.426;10.300;2023-03-23T05:43:36;10.00;;;6.43;;
62790;SDS011;48830;53.426;10.300;2023-03-23T05:46:37;8.80;;;5.47;;
62790;SDS011;48830;53.426;10.300;2023-03-23T05:49:03;8.32;;;5.38;;
62790;SDS011;48830;53.426;10.300;2023-03-23T05:51:35;8.48;;;5.22;;
62790;SDS011;48830;53.426;10.300;2023-03-23T05:54:00;10.35;;;5.72;;
62790;SDS011;48830;53.426;10.300;2023-03-23T05:56:27;9.60;;;4.88;;
62790;SDS011;48830;53.426;10.300;2023-03-23T05:59:14;9.32;;;5.13;;
62790;SDS011;48830;53.426;10.300;2023-03-23T06:01:43;9.45;;;4.68;;
62790;SDS011;48830;53.426;10.300;2023-03-23T06:04:08;9.63;;;4.10;;
62790;SDS011;48830;53.426;10.300;2023-03-23T06:06:54;8.20;;;4.80;;
62790;SDS011;48830;53.426;10.300;2023-03-23T06:09:21;7.50;;;4.00;;
62790;SDS011;48830;53.426;10.300;2023-03-23T06:12:08;7.27;;;3.90;;
62790;SDS011;48830;53.426;10.300;2023-03-23T06:14:57;9.75;;;3.83;;
62790;SDS011;48830;53.426;10.300;2023-03-23T06:17:33;5.97;;;3.75;;
62790;SDS011;48830;53.426;10.300;2023-03-23T06:20:01;7.77;;;4.10;;
62790;SDS011;48830;53.426;10.300;2023-03-23T06:22:29;5.97;;;3.87;;
62790;SDS011;48830;53.426;10.300;2023-03-23T06:25:11;6.47;;;3.85;;
62790;SDS011;48830;53.426;10.300;2023-03-23T06:27:40;7.63;;;3.80;;
62790;SDS011;48830;53.426;10.300;2023-03-23T06:30:06;6.97;;;3.70;;
62790;SDS011;48830;53.426;10.300;2023-03-23T06:32:33;7.40;;;3.78;;
62790;SDS011;48830;53.426;10.300;2023-03-23T06:35:00;6.55;;;3.60;;
62790;SDS011;48830;53.426;10.300;2023-03-23T06:37:32;6.57;;;3.47;;
62790;SDS011;48830;53.426;10.300;2023-03-23T06:40:04;7.53;;;3.42;;
62790;SDS011;48830;53.426;10.300;2023-03-23T06:42:36;5.28;;;3.25;;
62790;SDS011;48830;53.426;10.300;2023-03-23T06:45:25;7.13;;;3.50;;
62790;SDS011;48830;53.426;10.300;2023-03-23T06:48:05;7.03;;;3.42;;
62790;SDS011;48830;53.426;10.300;2023-03-23T06:50:31;6.60;;;3.42;;
62790;SDS011;48830;53.426;10.300;2023-03-23T06:52:57;6.40;;;3.35;;
62790;SDS011;48830;53.426;10.300;2023-03-23T06:55:23;8.40;;;3.20;;
62790;SDS011;48830;53.426;10.300;2023-03-23T06:57:49;7.30;;;3.50;;
62790;SDS011;48830;53.426;10.300;2023-03-23T07:00:14;6.00;;;3.07;;
62790;SDS011;48830;53.426;10.300;2023-03-23T07:02:42;6.22;;;2.92;;
62790;SDS011;48830;53.426;10.300;2023-03-23T07:05:09;5.93;;;2.95;;
62790;SDS011;48830;53.426;10.300;2023-03-23T07:07:36;5.93;;;3.10;;
62790;SDS011;48830;53.426;10.300;2023-03-23T07:10:13;5.85;;;3.10;;
62790;SDS011;48830;53.426;10.300;2023-03-23T07:12:39;5.57;;;3.17;;
62790;SDS011;48830;53.426;10.300;2023-03-23T07:15:07;8.88;;;2.90;;
62790;SDS011;48830;53.426;10.300;2023-03-23T07:17:37;4.80;;;3.13;;
62790;SDS011;48830;53.426;10.300;2023-03-23T07:20:25;5.05;;;3.08;;
62790;SDS011;48830;53.426;10.300;2023-03-23T07:22:53;6.07;;;2.90;;
62790;SDS011;48830;53.426;10.300;2023-03-23T07:25:32;6.45;;;3.45;;
62790;SDS011;48830;53.426;10.300;2023-03-23T07:27:59;5.50;;;3.08;;
62790;SDS011;48830;53.426;10.300;2023-03-23T07:30:26;5.60;;;2.90;;
62790;SDS011;48830;53.426;10.300;2023-03-23T07:32:54;6.22;;;3.20;;
62790;SDS011;48830;53.426;10.300;2023-03-23T07:35:20;5.45;;;3.13;;
62790;SDS011;48830;53.426;10.300;2023-03-23T07:37:53;5.60;;;2.90;;
62790;SDS011;48830;53.426;10.300;2023-03-23T07:40:19;6.30;;;2.88;;
62790;SDS011;48830;53.426;10.300;2023-03-23T07:42:52;4.65;;;2.97;;
62790;SDS011;48830;53.426;10.300;2023-03-23T07:45:42;6.93;;;3.10;;
62790;SDS011;48830;53.426;10.300;2023-03-23T07:48:08;6.65;;;2.85;;
62790;SDS011;48830;53.426;10.300;2023-03-23T07:50:34;6.05;;;3.03;;
62790;SDS011;48830;53.426;10.300;2023-03-23T07:53:05;6.15;;;2.92;;
62790;SDS011;48830;53.426;10.300;2023-03-23T07:55:31;7.45;;;2.88;;
62790;SDS011;48830;53.426;10.300;2023-03-23T07:58:04;7.07;;;3.03;;
62790;SDS011;48830;53.426;10.300;2023-03-23T08:00:30;4.70;;;2.95;;
62790;SDS011;48830;53.426;10.300;2023-03-23T08:02:56;6.32;;;3.30;;
62790;SDS011;48830;53.426;10.300;2023-03-23T08:05:47;4.72;;;3.03;;
62790;SDS011;48830;53.426;10.300;2023-03-23T08:08:42;6.18;;;3.45;;
62790;SDS011;48830;53.426;10.300;2023-03-23T08:11:26;6.88;;;3.60;;
62790;SDS011;48830;53.426;10.300;2023-03-23T08:14:11;6.38;;;3.47;;
62790;SDS011;48830;53.426;10.300;2023-03-23T08:16:37;3.97;;;2.88;;
62790;SDS011;48830;53.426;10.300;2023-03-23T08:19:41;4.68;;;2.97;;
62790;SDS011;48830;53.426;10.300;2023-03-23T08:22:37;5.78;;;2.78;;
62790;SDS011;48830;53.426;10.300;2023-03-23T08:25:27;5.60;;;3.20;;
62790;SDS011;48830;53.426;10.300;2023-03-23T08:28:06;5.55;;;2.90;;
62790;SDS011;48830;53.426;10.300;2023-03-23T08:30:55;6.55;;;3.22;;
62790;SDS011;48830;53.426;10.300;2023-03-23T08:33:33;5.70;;;3.20;;
62790;SDS011;48830;53.426;10.300;2023-03-23T08:36:28;4.82;;;3.00;;
62790;SDS011;48830;53.426;10.300;2023-03-23T08:39:05;5.80;;;3.00;;
62790;SDS011;48830;53.426;10.300;2023-03-23T08:41:31;5.13;;;2.83;;
62790;SDS011;48830;53.426;10.300;2023-03-23T08:44:16;6.00;;;3.22;;
62790;SDS011;48830;53.426;10.300;2023-03-23T08:47:08;5.10;;;2.97;;
62790;SDS011;48830;53.426;10.300;2023-03-23T08:49:49;5.55;;;3.05;;
62790;SDS011;48830;53.426;10.300;2023-03-23T08:52:46;5.35;;;3.58;;
62790;SDS011;48830;53.426;10.300;2023-03-23T08:55:32;7.85;;;3.72;;
62790;SDS011;48830;53.426;10.300;2023-03-23T08:58:30;6.50;;;3.70;;
62790;SDS011;48830;53.426;10.300;2023-03-23T09:00:58;4.57;;;2.67;;
62790;SDS011;48830;53.426;10.300;2023-03-23T09:03:47;5.15;;;1.80;;
62790;SDS011;48830;53.426;10.300;2023-03-23T09:06:32;1.58;;;1.30;;
62790;SDS011;48830;53.426;10.300;2023-03-23T09:08:58;1.40;;;1.15;;
62790;SDS011;48830;53.426;10.300;2023-03-23T09:11:25;1.48;;;1.15;;
62790;SDS011;48830;53.426;10.300;2023-03-23T09:13:51;1.52;;;1.10;;
62790;SDS011;48830;53.426;10.300;2023-03-23T09:16:17;1.73;;;1.30;;
62790;SDS011;48830;53.426;10.300;2023-03-23T09:18:42;1.70;;;1.30;;
62790;SDS011;48830;53.426;10.300;2023-03-23T09:21:09;3.40;;;1.50;;
62790;SDS011;48830;53.426;10.300;2023-03-23T09:23:34;4.25;;;2.00;;
62790;SDS011;48830;53.426;10.300;2023-03-23T09:26:00;4.05;;;1.90;;
62790;SDS011;48830;53.426;10.300;2023-03-23T09:28:27;3.10;;;1.80;;
62790;SDS011;48830;53.426;10.300;2023-03-23T09:30:55;3.63;;;1.80;;
62790;SDS011;48830;53.426;10.300;2023-03-23T09:33:24;4.35;;;1.80;;
62790;SDS011;48830;53.426;10.300;2023-03-23T09:35:50;7.10;;;2.47;;
62790;SDS011;48830;53.426;10.300;2023-03-23T09:38:16;6.20;;;1.80;;
62790;SDS011;48830;53.426;10.300;2023-03-23T09:48:57;6.90;;;1.90;;
62790;SDS011;48830;53.426;10.300;2023-03-23T09:51:46;6.68;;;1.98;;
62790;SDS011;48830;53.426;10.300;2023-03-23T09:54:20;6.50;;;2.35;;
62790;SDS011;48830;53.426;10.300;2023-03-23T09:56:49;5.75;;;2.13;;
62790;SDS011;48830;53.426;10.300;2023-03-23T10:01:49;7.65;;;1.98;;
62790;SDS011;48830;53.426;10.300;2023-03-23T10:07:09;6.55;;;2.05;;
62790;SDS011;48830;53.426;10.300;2023-03-23T10:09:43;7.20;;;2.05;;
62790;SDS011;48830;53.426;10.300;2023-03-23T10:12:17;8.23;;;2.20;;
62790;SDS011;48830;53.426;10.300;2023-03-23T10:17:59;7.35;;;2.28;;
62790;SDS011;48830;53.426;10.300;2023-03-23T10:25:50;6.20;;;2.17;;
62790;SDS011;48830;53.426;10.300;2023-03-23T10:28:21;8.20;;;2.22;;
62790;SDS011;48830;53.426;10.300;2023-03-23T10:30:54;9.20;;;2.35;;
62790;SDS011;48830;53.426;10.300;2023-03-23T10:33:24;7.88;;;2.47;;
62790;SDS011;48830;53.426;10.300;2023-03-23T10:38:24;9.02;;;2.53;;
62790;SDS011;48830;53.426;10.300;2023-03-23T10:40:54;13.52;;;2.50;;
62790;SDS011;48830;53.426;10.300;2023-03-23T10:43:24;9.52;;;3.17;;
62790;SDS011;48830;53.426;10.300;2023-03-23T10:46:03;7.32;;;2.40;;
62790;SDS011;48830;53.426;10.300;2023-03-23T10:48:47;10.95;;;2.40;;
62790;SDS011;48830;53.426;10.300;2023-03-23T10:51:16;9.63;;;2.50;;
62790;SDS011;48830;53.426;10.300;2023-03-23T10:53:49;9.23;;;2.88;;
62790;SDS011;48830;53.426;10.300;2023-03-23T10:56:27;10.00;;;3.05;;
62790;SDS011;48830;53.426;10.300;2023-03-23T10:58:59;10.63;;;3.28;;
62790;SDS011;48830;53.426;10.300;2023-03-23T11:01:31;9.15;;;2.80;;
62790;SDS011;48830;53.426;10.300;2023-03-23T11:03:58;11.35;;;3.22;;
62790;SDS011;48830;53.426;10.300;2023-03-23T11:06:32;8.32;;;2.60;;
62790;SDS011;48830;53.426;10.300;2023-03-23T11:09:09;10.50;;;2.72;;
62790;SDS011;48830;53.426;10.300;2023-03-23T11:11:54;10.30;;;2.50;;
62790;SDS011;48830;53.426;10.300;2023-03-23T11:19:26;11.45;;;3.40;;
62790;SDS011;48830;53.426;10.300;2023-03-23T11:22:05;8.40;;;2.90;;
62790;SDS011;48830;53.426;10.300;2023-03-23T11:24:42;10.88;;;2.88;;
62790;SDS011;48830;53.426;10.300;2023-03-23T11:27:09;8.85;;;2.83;;
62790;SDS011;48830;53.426;10.300;2023-03-23T11:29:36;14.18;;;3.28;;
62790;SDS011;48830;53.426;10.300;2023-03-23T11:32:19;10.13;;;3.00;;
62790;SDS011;48830;53.426;10.300;2023-03-23T11:34:53;10.85;;;3.08;;
62790;SDS011;48830;53.426;10.300;2023-03-23T11:37:40;11.73;;;2.85;;
62790;SDS011;48830;53.426;10.300;2023-03-23T11:42:45;12.05;;;3.40;;
62790;SDS011;48830;53.426;10.300;2023-03-23T11:45:37;10.02;;;2.97;;
62790;SDS011;48830;53.426;10.300;2023-03-23T11:51:10;9.32;;;2.63;;
62790;SDS011;48830;53.426;10.300;2023-03-23T11:56:36;9.32;;;2.38;;
62790;SDS011;48830;53.426;10.300;2023-03-23T11:59:09;9.30;;;2.80;;
62790;SDS011;48830;53.426;10.300;2023-03-23T12:09:58;8.65;;;2.17;;
62790;SDS011;48830;53.426;10.300;2023-03-23T12:15:44;8.18;;;3.03;;
62790;SDS011;48830;53.426;10.300;2023-03-23T12:23:23;7.18;;;2.40;;
62790;SDS011;48830;53.426;10.300;2023-03-23T12:26:06;9.98;;;2.60;;
62790;SDS011;48830;53.426;10.300;2023-03-23T12:28:47;11.07;;;2.83;;
62790;SDS011;48830;53.426;10.300;2023-03-23T12:42:10;10.43;;;3.83;;
62790;SDS011;48830;53.426;10.300;2023-03-23T12:44:43;11.00;;;2.75;;
62790;SDS011;48830;53.426;10.300;2023-03-23T12:49:49;8.15;;;2.78;;
62790;SDS011;48830;53.426;10.300;2023-03-23T12:52:25;11.32;;;3.35;;
62790;SDS011;48830;53.426;10.300;2023-03-23T13:00:33;11.68;;;3.08;;
62790;SDS011;48830;53.426;10.300;2023-03-23T13:08:48;11.23;;;3.78;;
62790;SDS011;48830;53.426;10.300;2023-03-23T13:11:24;8.38;;;3.15;;
62790;SDS011;48830;53.426;10.300;2023-03-23T13:13:55;10.98;;;3.28;;
62790;SDS011;48830;53.426;10.300;2023-03-23T13:19:32;7.47;;;3.00;;
62790;SDS011;48830;53.426;10.300;2023-03-23T13:22:15;7.97;;;2.97;;
62790;SDS011;48830;53.426;10.300;2023-03-23T13:25:00;9.60;;;3.10;;
62790;SDS011;48830;53.426;10.300;2023-03-23T13:27:29;10.05;;;2.65;;
62790;SDS011;48830;53.426;10.300;2023-03-23T13:29:55;8.88;;;2.78;;
62790;SDS011;48830;53.426;10.300;2023-03-23T13:32:44;8.13;;;2.80;;
62790;SDS011;48830;53.426;10.300;2023-03-23T13:35:13;7.13;;;2.80;;
62790;SDS011;48830;53.426;10.300;2023-03-23T13:37:50;9.15;;;2.50;;
62790;SDS011;48830;53.426;10.300;2023-03-23T13:42:51;7.05;;;2.30;;
62790;SDS011;48830;53.426;10.300;2023-03-23T13:45:23;6.63;;;2.30;;
62790;SDS011;48830;53.426;10.300;2023-03-23T13:48:04;7.32;;;2.50;;
62790;SDS011;48830;53.426;10.300;2023-03-23T13:51:00;6.97;;;2.60;;
62790;SDS011;48830;53.426;10.300;2023-03-23T13:53:30;4.63;;;2.10;;
62790;SDS011;48830;53.426;10.300;2023-03-23T14:01:18;4.78;;;2.00;;
62790;SDS011;48830;53.426;10.300;2023-03-23T14:03:48;5.70;;;2.20;;
62790;SDS011;48830;53.426;10.300;2023-03-23T14:06:16;5.60;;;2.03;;
62790;SDS011;48830;53.426;10.300;2023-03-23T14:11:57;5.10;;;2.30;;
62790;SDS011;48830;53.426;10.300;2023-03-23T14:14:25;5.55;;;2.20;;
62790;SDS011;48830;53.426;10.300;2023-03-23T14:17:12;4.80;;;1.90;;
62790;SDS011;48830;53.426;10.300;2023-03-23T14:19:41;4.28;;;1.70;;
62790;SDS011;48830;53.426;10.300;2023-03-23T14:22:23;4.93;;;1.90;;
62790;SDS011;48830;53.426;10.300;2023-03-23T14:24:51;5.28;;;1.83;;
62790;SDS011;48830;53.426;10.300;2023-03-23T14:27:21;4.18;;;1.70;;
62790;SDS011;48830;53.426;10.300;2023-03-23T14:29:57;4.82;;;1.95;;
62790;SDS011;48830;53.426;10.300;2023-03-23T14:32:29;3.75;;;1.83;;
62790;SDS011;48830;53.426;10.300;2023-03-23T14:34:57;5.43;;;1.83;;
62790;SDS011;48830;53.426;10.300;2023-03-23T14:37:24;4.38;;;1.90;;
62790;SDS011;48830;53.426;10.300;2023-03-23T14:39:54;3.50;;;1.05;;
62790;SDS011;48830;53.426;10.300;2023-03-23T14:42:31;4.53;;;1.42;;
62790;SDS011;48830;53.426;10.300;2023-03-23T14:44:59;4.05;;;1.30;;
62790;SDS011;48830;53.426;10.300;2023-03-23T14:47:30;5.82;;;1.58;;
62790;SDS011;48830;53.426;10.300;2023-03-23T14:50:00;6.43;;;2.10;;
62790;SDS011;48830;53.426;10.300;2023-03-23T14:52:32;4.13;;;1.20;;
62790;SDS011;48830;53.426;10.300;2023-03-23T14:55:12;3.72;;;1.38;;
62790;SDS011;48830;53.426;10.300;2023-03-23T14:57:41;5.30;;;1.40;;
62790;SDS011;48830;53.426;10.300;2023-03-23T15:00:18;3.63;;;1.40;;
62790;SDS011;48830;53.426;10.300;2023-03-23T15:02:48;3.17;;;1.48;;
62790;SDS011;48830;53.426;10.300;2023-03-23T15:05:18;2.78;;;1.25;;
62790;SDS011;48830;53.426;10.300;2023-03-23T15:07:48;2.67;;;1.30;;
62790;SDS011;48830;53.426;10.300;2023-03-23T15:10:19;6.72;;;1.40;;
62790;SDS011;48830;53.426;10.300;2023-03-23T15:12:47;5.93;;;1.58;;
62790;SDS011;48830;53.426;10.300;2023-03-23T15:17:53;7.10;;;1.60;;
62790;SDS011;48830;53.426;10.300;2023-03-23T15:23:14;4.45;;;1.58;;
62790;SDS011;48830;53.426;10.300;2023-03-23T15:25:47;8.18;;;2.00;;
62790;SDS011;48830;53.426;10.300;2023-03-23T15:28:19;5.57;;;1.63;;
62790;SDS011;48830;53.426;10.300;2023-03-23T15:30:54;7.40;;;1.85;;
62790;SDS011;48830;53.426;10.300;2023-03-23T15:33:25;5.00;;;1.80;;
62790;SDS011;48830;53.426;10.300;2023-03-23T15:35:55;4.00;;;1.63;;
62790;SDS011;48830;53.426;10.300;2023-03-23T15:38:31;7.55;;;1.77;;
62790;SDS011;48830;53.426;10.300;2023-03-23T15:40:59;5.45;;;2.00;;
62790;SDS011;48830;53.426;10.300;2023-03-23T15:43:28;5.05;;;1.85;;
62790;SDS011;48830;53.426;10.300;2023-03-23T15:46:01;7.43;;;1.92;;
62790;SDS011;48830;53.426;10.300;2023-03-23T15:48:31;4.72;;;1.90;;
62790;SDS011;48830;53.426;10.300;2023-03-23T15:50:59;4.55;;;1.60;;
62790;SDS011;48830;53.426;10.300;2023-03-23T15:53:32;3.28;;;1.45;;
62790;SDS011;48830;53.426;10.300;2023-03-23T15:56:04;3.42;;;1.30;;
62790;SDS011;48830;53.426;10.300;2023-03-23T15:58:31;5.25;;;1.50;;
62790;SDS011;48830;53.426;10.300;2023-03-23T16:00:57;7.03;;;1.48;;
62790;SDS011;48830;53.426;10.300;2023-03-23T16:03:27;5.10;;;1.70;;
62790;SDS011;48830;53.426;10.300;2023-03-23T16:05:59;6.28;;;1.45;;
62790;SDS011;48830;53.426;10.300;2023-03-23T16:08:27;5.05;;;1.42;;
62790;SDS011;48830;53.426;10.300;2023-03-23T16:10:52;5.28;;;1.42;;
62790;SDS011;48830;53.426;10.300;2023-03-23T16:13:18;5.05;;;1.42;;
62790;SDS011;48830;53.426;10.300;2023-03-23T16:15:43;4.40;;;1.65;;
62790;SDS011;48830;53.426;10.300;2023-03-23T16:18:16;4.75;;;1.70;;
62790;SDS011;48830;53.426;10.300;2023-03-23T16:20:43;4.65;;;1.85;;
62790;SDS011;48830;53.426;10.300;2023-03-23T16:23:08;5.70;;;1.40;;
62790;SDS011;48830;53.426;10.300;2023-03-23T16:25:34;3.75;;;1.38;;
62790;SDS011;48830;53.426;10.300;2023-03-23T16:27:59;3.80;;;1.40;;
62790;SDS011;48830;53.426;10.300;2023-03-23T16:30:26;6.03;;;1.70;;
62790;SDS011;48830;53.426;10.300;2023-03-23T16:32:53;4.40;;;1.40;;
62790;SDS011;48830;53.426;10.300;2023-03-23T16:35:19;4.33;;;1.70;;
62790;SDS011;48830;53.426;10.300;2023-03-23T16:37:50;3.70;;;1.42;;
62790;SDS011;48830;53.426;10.300;2023-03-23T16:40:17;3.83;;;1.50;;
62790;SDS011;48830;53.426;10.300;2023-03-23T16:42:44;6.30;;;1.77;;
62790;SDS011;48830;53.426;10.300;2023-03-23T16:45:11;6.50;;;1.80;;
62790;SDS011;48830;53.426;10.300;2023-03-23T16:47:37;3.65;;;1.50;;
62790;SDS011;48830;53.426;10.300;2023-03-23T16:50:04;7.53;;;2.00;;
62790;SDS011;48830;53.426;10.300;2023-03-23T16:52:31;5.93;;;1.75;;
62790;SDS011;48830;53.426;10.300;2023-03-23T16:54:57;5.70;;;2.00;;
62790;SDS011;48830;53.426;10.300;2023-03-23T16:57:22;5.88;;;2.33;;